Time;durP1;ratioP1;P1;durP2;ratioP2;P2;SDS_P1;SDS_P2;PMS_P1;PMS_P2;Temp;Humidity;BMP_temperature;BMP_pressure;BME280_temperature;BME280_humidity;BME280_pressure;Samples;Min_cycle;Max_cycle;Signal;HPM_P1;HPM_P2
2024/01/23 00:01:35;;;;;;;6.27;1.90;;;;;;;;;;5038824;28;20182;-68
2024/01/23 00:04:02;;;;;;;10.27;2.70;;;;;;;;;;5055369;28;20182;-68
2024/01/23 00:06:29;;;;;;;13.07;2.30;;;;;;;;;;5073025;28;20182;-68
2024/01/23 00:08:57;;;;;;;4.47;1.73;;;;;;;;;;5055178;28;20722;-68
2024/01/23 00:11:24;;;;;;;8.83;2.20;;;;;;;;;;5055323;28;20603;-68
2024/01/23 00:13:50;;;;;;;10.00;2.73;;;;;;;;;;5039674;28;20186;-68
2024/01/23 00:16:17;;;;;;;10.20;1.50;;;;;;;;;;5055207;28;20182;-68
2024/01/23 00:18:44;;;;;;;9.37;2.10;;;;;;;;;;5039269;28;20236;-68
2024/01/23 00:21:11;;;;;;;6.90;1.97;;;;;;;;;;5073475;28;20178;-68
2024/01/23 00:23:37;;;;;;;7.93;2.17;;;;;;;;;;5056396;28;20224;-69
2024/01/23 00:26:04;;;;;;;11.97;2.50;;;;;;;;;;5038369;28;20198;-69
2024/01/23 00:28:31;;;;;;;10.70;2.27;;;;;;;;;;5055625;28;20198;-69
2024/01/23 00:30:57;;;;;;;9.37;2.67;;;;;;;;;;5058896;28;20267;-68
2024/01/23 00:33:24;;;;;;;12.37;2.70;;;;;;;;;;5058422;28;20182;-69
2024/01/23 00:35:51;;;;;;;9.73;1.50;;;;;;;;;;5076824;28;20684;-69
2024/01/23 00:38:17;;;;;;;7.43;2.47;;;;;;;;;;5076318;28;20193;-68
2024/01/23 00:40:44;;;;;;;8.27;2.10;;;;;;;;;;5058524;28;20182;-68
2024/01/23 00:43:12;;;;;;;7.67;2.37;;;;;;;;;;5058481;28;20241;-69
2024/01/23 00:45:41;;;;;;;9.43;2.50;;;;;;;;;;5074996;28;20231;-68
2024/01/23 00:48:08;;;;;;;12.50;2.30;;;;;;;;;;5042269;28;20233;-68
2024/01/23 00:50:35;;;;;;;11.40;2.00;;;;;;;;;;5042323;28;20565;-69
2024/01/23 00:53:02;;;;;;;8.63;1.90;;;;;;;;;;5058952;28;20182;-69
2024/01/23 00:55:28;;;;;;;12.07;2.57;;;;;;;;;;5041826;28;20204;-69
2024/01/23 00:57:55;;;;;;;4.13;1.67;;;;;;;;;;5058202;28;20193;-69
2024/01/23 01:00:22;;;;;;;10.43;2.77;;;;;;;;;;5076441;28;20182;-68
2024/01/23 01:02:48;;;;;;;11.97;2.60;;;;;;;;;;5041959;28;20186;-69
2024/01/23 01:05:15;;;;;;;9.07;1.63;;;;;;;;;;5058869;28;20708;-68
2024/01/23 01:07:42;;;;;;;7.23;1.80;;;;;;;;;;5058074;28;20197;-69
2024/01/23 01:10:09;;;;;;;11.23;2.47;;;;;;;;;;5075622;28;20540;-68
2024/01/23 01:12:36;;;;;;;7.23;1.90;;;;;;;;;;5041244;28;20213;-69
2024/01/23 01:46:39;;;;;;;7.73;2.17;;;;;;;;;;5075164;28;20192;-68
2024/01/23 01:49:06;;;;;;;5.33;1.73;;;;;;;;;;5040363;28;20672;-68
2024/01/23 01:51:32;;;;;;;8.27;2.33;;;;;;;;;;5040713;28;20182;-68
2024/01/23 01:53:59;;;;;;;10.87;2.23;;;;;;;;;;5040881;28;20633;-69
2024/01/23 01:56:26;;;;;;;10.50;2.17;;;;;;;;;;5057386;28;20178;-69
2024/01/23 01:58:53;;;;;;;8.63;2.00;;;;;;;;;;5041032;28;20196;-68
2024/01/23 02:01:20;;;;;;;10.40;2.47;;;;;;;;;;5057227;28;20182;-68
2024/01/23 02:03:46;;;;;;;10.27;1.80;;;;;;;;;;5057029;28;20269;-69
2024/01/23 02:06:13;;;;;;;4.80;1.70;;;;;;;;;;5075008;28;20220;-69
2024/01/23 02:08:41;;;;;;;10.97;2.57;;;;;;;;;;5057443;28;20202;-69
2024/01/23 02:11:08;;;;;;;9.00;1.80;;;;;;;;;;5057110;28;20235;-68
2024/01/23 02:13:35;;;;;;;9.00;2.43;;;;;;;;;;5074401;28;20186;-68
2024/01/23 02:16:02;;;;;;;10.47;2.40;;;;;;;;;;5053366;28;20511;-68
2024/01/23 02:18:29;;;;;;;8.93;2.03;;;;;;;;;;5053477;28;20187;-68
2024/01/23 02:20:56;;;;;;;11.57;2.33;;;;;;;;;;5056292;28;20197;-68
2024/01/23 02:23:29;;;;;;;10.67;3.17;;;;;;;;;;5056803;28;20216;-68
2024/01/23 02:25:56;;;;;;;7.00;1.67;;;;;;;;;;5039997;28;20698;-69
2024/01/23 02:28:23;;;;;;;13.30;3.00;;;;;;;;;;5056487;28;20205;-68
2024/01/23 02:30:49;;;;;;;14.10;2.83;;;;;;;;;;5056919;28;20560;-69
2024/01/23 02:33:16;;;;;;;10.37;3.30;;;;;;;;;;5056395;28;20182;-68
2024/01/23 02:35:43;;;;;;;9.20;2.23;;;;;;;;;;5056606;28;20239;-69
2024/01/23 02:38:09;;;;;;;8.77;2.93;;;;;;;;;;5057034;28;20188;-68
2024/01/23 02:40:54;;;;;;;8.10;2.63;;;;;;;;;;5056367;28;20192;-68
2024/01/23 02:43:20;;;;;;;10.27;2.30;;;;;;;;;;5056255;28;20244;-68
2024/01/23 02:45:48;;;;;;;8.80;2.47;;;;;;;;;;5039836;28;20687;-69
2024/01/23 02:48:14;;;;;;;8.30;2.47;;;;;;;;;;5056375;28;20283;-69
2024/01/23 02:50:41;;;;;;;10.57;2.73;;;;;;;;;;5056467;28;20228;-68
2024/01/23 02:53:08;;;;;;;10.70;2.57;;;;;;;;;;5073695;28;20223;-68
2024/01/23 02:55:34;;;;;;;9.77;2.30;;;;;;;;;;5056358;28;20190;-68
2024/01/23 02:58:01;;;;;;;16.10;2.77;;;;;;;;;;5073938;28;20189;-68
2024/01/23 03:00:28;;;;;;;12.20;2.70;;;;;;;;;;5055982;28;20702;-68
2024/01/23 03:02:54;;;;;;;8.10;2.33;;;;;;;;;;5056494;28;20190;-68
2024/01/23 03:05:22;;;;;;;12.47;3.10;;;;;;;;;;5056125;28;20196;-68
2024/01/23 03:08:06;;;;;;;11.53;2.10;;;;;;;;;;5042522;28;20249;-69
2024/01/23 03:10:32;;;;;;;7.13;2.47;;;;;;;;;;5074260;28;20206;-68
2024/01/23 03:12:59;;;;;;;15.80;2.70;;;;;;;;;;5056143;28;20190;-69
2024/01/23 03:15:26;;;;;;;12.10;2.37;;;;;;;;;;5055882;28;20198;-68
2024/01/23 03:17:53;;;;;;;10.43;2.50;;;;;;;;;;5056003;28;20702;-68
2024/01/23 03:20:20;;;;;;;5.80;2.43;;;;;;;;;;5056485;28;20189;-68
2024/01/23 03:22:47;;;;;;;6.43;1.83;;;;;;;;;;5056033;28;20189;-68
2024/01/23 03:25:13;;;;;;;8.37;2.30;;;;;;;;;;5056548;28;20259;-70
2024/01/23 03:27:40;;;;;;;10.67;3.07;;;;;;;;;;5073969;28;20184;-68
2024/01/23 03:30:07;;;;;;;3.53;1.60;;;;;;;;;;5055587;28;20205;-69
2024/01/23 03:32:33;;;;;;;8.73;2.03;;;;;;;;;;5039910;28;20185;-68
2024/01/23 03:35:00;;;;;;;7.03;2.60;;;;;;;;;;5031229;28;20252;-68
2024/01/23 03:37:27;;;;;;;6.60;1.40;;;;;;;;;;5074130;28;20186;-68
2024/01/23 03:39:53;;;;;;;10.10;2.27;;;;;;;;;;5055760;28;20217;-68
2024/01/23 03:42:38;;;;;;;11.77;2.50;;;;;;;;;;5056000;28;20524;-68
2024/01/23 03:45:08;;;;;;;11.37;3.13;;;;;;;;;;5055844;28;20182;-69
2024/01/23 03:47:52;;;;;;;13.40;2.37;;;;;;;;;;5058435;28;20157;-68
2024/01/23 03:50:19;;;;;;;8.17;2.57;;;;;;;;;;5074183;28;20194;-69
2024/01/23 03:52:46;;;;;;;11.70;2.80;;;;;;;;;;5055272;28;20633;-69
2024/01/23 03:55:12;;;;;;;8.53;2.40;;;;;;;;;;5054785;28;20703;-67
2024/01/23 03:57:39;;;;;;;8.33;2.10;;;;;;;;;;5055228;28;20228;-67
2024/01/23 04:00:07;;;;;;;14.23;3.13;;;;;;;;;;5038865;28;20186;-67
2024/01/23 04:02:40;;;;;;;11.83;3.07;;;;;;;;;;5039779;28;20664;-69
2024/01/23 04:05:07;;;;;;;8.90;2.80;;;;;;;;;;5058703;28;20533;-68
2024/01/23 04:07:33;;;;;;;9.10;2.10;;;;;;;;;;5042923;28;20182;-68
2024/01/23 04:10:00;;;;;;;12.63;2.50;;;;;;;;;;5060100;28;20510;-68
2024/01/23 04:12:28;;;;;;;13.60;3.13;;;;;;;;;;5042729;28;20182;-68
2024/01/23 04:14:55;;;;;;;8.07;2.23;;;;;;;;;;5042387;28;20198;-69
2024/01/23 04:17:21;;;;;;;11.53;2.20;;;;;;;;;;5059813;28;20508;-68
2024/01/23 04:19:48;;;;;;;11.63;3.03;;;;;;;;;;5059239;28;20186;-70
2024/01/23 04:22:15;;;;;;;15.13;3.30;;;;;;;;;;5058789;28;20536;-70
2024/01/23 04:24:41;;;;;;;6.03;2.07;;;;;;;;;;5042355;28;20284;-68
2024/01/23 04:27:09;;;;;;;12.93;2.53;;;;;;;;;;5058769;28;20186;-68
2024/01/23 04:29:35;;;;;;;14.67;2.50;;;;;;;;;;5076299;28;20202;-68
2024/01/23 04:32:02;;;;;;;8.77;2.50;;;;;;;;;;5058641;28;20195;-69
2024/01/23 04:34:46;;;;;;;10.70;2.17;;;;;;;;;;5061519;28;20186;-68
2024/01/23 04:37:13;;;;;;;14.93;2.87;;;;;;;;;;5059229;28;20598;-68
2024/01/23 04:39:44;;;;;;;12.03;3.23;;;;;;;;;;5043867;28;20193;-68
2024/01/23 04:42:10;;;;;;;2.53;1.20;;;;;;;;;;5042190;28;20194;-69
2024/01/23 04:44:37;;;;;;;13.43;3.27;;;;;;;;;;5041931;28;20188;-68
2024/01/23 04:47:21;;;;;;;15.40;3.07;;;;;;;;;;5058399;28;20626;-68
2024/01/23 04:49:48;;;;;;;14.87;2.97;;;;;;;;;;5058302;28;20495;-70
2024/01/23 04:52:15;;;;;;;10.43;2.37;;;;;;;;;;5074032;28;20239;-69
2024/01/23 04:54:42;;;;;;;15.73;3.00;;;;;;;;;;5076524;28;20186;-69
2024/01/23 04:57:09;;;;;;;8.40;2.50;;;;;;;;;;5058171;28;20226;-68
2024/01/23 04:59:36;;;;;;;7.33;1.97;;;;;;;;;;5025523;28;20220;-69
2024/01/23 05:02:04;;;;;;;12.40;2.57;;;;;;;;;;5041594;28;20209;-68
2024/01/23 05:04:31;;;;;;;13.40;3.30;;;;;;;;;;5041846;28;20189;-68
2024/01/23 05:06:57;;;;;;;7.93;2.30;;;;;;;;;;5076692;28;20188;-70
2024/01/23 05:09:24;;;;;;;11.63;2.63;;;;;;;;;;5041721;28;20645;-68
2024/01/23 05:11:53;;;;;;;10.83;3.07;;;;;;;;;;5059171;28;20186;-70
2024/01/23 05:14:20;;;;;;;9.70;2.73;;;;;;;;;;5057958;28;20655;-70
2024/01/23 05:16:46;;;;;;;5.90;2.23;;;;;;;;;;5041253;28;20194;-67
2024/01/23 05:19:13;;;;;;;18.90;3.80;;;;;;;;;;5075511;28;20186;-68
2024/01/23 05:21:40;;;;;;;11.53;3.40;;;;;;;;;;5025600;28;20425;-68
2024/01/23 05:24:07;;;;;;;11.50;3.47;;;;;;;;;;5058056;28;20186;-68
2024/01/23 05:26:34;;;;;;;10.67;2.97;;;;;;;;;;5075368;28;20182;-68
2024/01/23 05:29:00;;;;;;;11.07;3.43;;;;;;;;;;5040990;28;20422;-69
2024/01/23 05:31:27;;;;;;;17.23;3.83;;;;;;;;;;5057614;28;20593;-69
2024/01/23 05:33:55;;;;;;;13.87;3.70;;;;;;;;;;5040982;28;20204;-69
2024/01/23 05:36:22;;;;;;;17.53;3.60;;;;;;;;;;5041294;28;20641;-69
2024/01/23 05:38:50;;;;;;;6.50;2.63;;;;;;;;;;5040955;28;20502;-69
2024/01/23 05:41:17;;;;;;;12.57;4.03;;;;;;;;;;5057879;28;20438;-69
2024/01/23 05:43:44;;;;;;;11.23;3.00;;;;;;;;;;5041419;28;20506;-68
2024/01/23 05:46:11;;;;;;;11.03;3.43;;;;;;;;;;5057318;28;20190;-68
2024/01/23 05:48:37;;;;;;;8.80;3.63;;;;;;;;;;5040631;28;20502;-68
2024/01/23 05:51:04;;;;;;;12.40;3.83;;;;;;;;;;5057459;28;20464;-69
2024/01/23 05:53:31;;;;;;;12.93;3.17;;;;;;;;;;5024635;28;20190;-68
2024/01/23 05:55:58;;;;;;;14.53;3.53;;;;;;;;;;5040512;28;20235;-68
2024/01/23 05:58:25;;;;;;;6.60;2.43;;;;;;;;;;5040817;28;20174;-68
2024/01/23 06:00:51;;;;;;;10.37;3.23;;;;;;;;;;5040852;28;20201;-68
2024/01/23 06:03:18;;;;;;;15.13;4.57;;;;;;;;;;5040336;28;20189;-67
2024/01/23 06:06:02;;;;;;;7.67;1.77;;;;;;;;;;5059689;28;20166;-68
2024/01/23 06:08:30;;;;;;;11.40;3.27;;;;;;;;;;5033206;28;20186;-69
2024/01/23 06:11:14;;;;;;;10.77;3.07;;;;;;;;;;5068534;28;20243;-68
2024/01/23 06:13:41;;;;;;;13.93;3.00;;;;;;;;;;5056615;28;20435;-68
2024/01/23 06:16:07;;;;;;;14.93;4.77;;;;;;;;;;5040200;28;20236;-69
2024/01/23 06:18:35;;;;;;;12.73;3.70;;;;;;;;;;5040045;28;20420;-68
2024/01/23 06:21:02;;;;;;;10.63;3.83;;;;;;;;;;5045504;28;20187;-69
2024/01/23 06:23:29;;;;;;;18.60;4.33;;;;;;;;;;5053014;28;20266;-69
2024/01/23 06:25:56;;;;;;;19.63;4.97;;;;;;;;;;5023571;28;20198;-69
2024/01/23 06:28:23;;;;;;;10.37;3.40;;;;;;;;;;5020246;28;20233;-69
2024/01/23 06:30:50;;;;;;;17.03;3.83;;;;;;;;;;5046560;28;20228;-68
2024/01/23 06:33:17;;;;;;;12.80;4.03;;;;;;;;;;5030698;28;20272;-68
2024/01/23 06:35:44;;;;;;;9.00;2.77;;;;;;;;;;5045679;28;20295;-68
2024/01/23 06:38:11;;;;;;;7.13;3.00;;;;;;;;;;5046505;28;20236;-68
2024/01/23 06:40:38;;;;;;;20.20;4.70;;;;;;;;;;5046431;28;20442;-69
2024/01/23 06:43:05;;;;;;;20.20;4.00;;;;;;;;;;5046642;28;20443;-68
2024/01/23 06:45:32;;;;;;;8.60;3.60;;;;;;;;;;5052066;28;20194;-68
2024/01/23 06:47:59;;;;;;;11.60;4.03;;;;;;;;;;5056267;28;20182;-68
2024/01/23 06:50:28;;;;;;;16.23;4.47;;;;;;;;;;5072819;28;20218;-70
2024/01/23 06:52:56;;;;;;;11.03;2.87;;;;;;;;;;5056631;28;20186;-70
2024/01/23 06:55:23;;;;;;;10.67;3.57;;;;;;;;;;5039651;28;20244;-70
2024/01/23 06:57:49;;;;;;;12.10;3.77;;;;;;;;;;5056717;28;20265;-70
2024/01/23 07:00:16;;;;;;;20.57;4.53;;;;;;;;;;5039691;28;20217;-70
2024/01/23 07:02:43;;;;;;;7.87;2.67;;;;;;;;;;5056545;28;20572;-70
2024/01/23 07:05:10;;;;;;;11.70;3.57;;;;;;;;;;5082426;28;20181;-68
2024/01/23 07:07:37;;;;;;;11.47;4.60;;;;;;;;;;5076576;28;20235;-67
2024/01/23 07:10:04;;;;;;;8.13;3.37;;;;;;;;;;5079411;28;20451;-68
2024/01/23 07:12:31;;;;;;;6.77;3.00;;;;;;;;;;5096511;28;20250;-68
2024/01/23 07:14:58;;;;;;;7.40;2.93;;;;;;;;;;5079554;28;20200;-68
2024/01/23 07:17:26;;;;;;;11.57;3.77;;;;;;;;;;5079730;28;20185;-68
2024/01/23 07:19:54;;;;;;;11.87;3.40;;;;;;;;;;5079443;28;20211;-69
2024/01/23 07:22:21;;;;;;;9.20;3.80;;;;;;;;;;5079055;28;20200;-73
2024/01/23 07:24:48;;;;;;;10.47;3.03;;;;;;;;;;5095884;28;20233;-69
2024/01/23 07:27:14;;;;;;;12.73;4.13;;;;;;;;;;5079313;28;20191;-69
2024/01/23 07:29:41;;;;;;;13.77;4.37;;;;;;;;;;5096110;28;20265;-71
2024/01/23 07:32:08;;;;;;;8.40;2.73;;;;;;;;;;5114169;28;20181;-71
2024/01/23 07:34:35;;;;;;;5.90;2.70;;;;;;;;;;5095814;28;20291;-70
2024/01/23 07:37:02;;;;;;;12.73;2.90;;;;;;;;;;5114145;28;20172;-68
2024/01/23 07:39:29;;;;;;;16.57;4.07;;;;;;;;;;5117166;28;20183;-68
2024/01/23 07:41:56;;;;;;;18.23;3.97;;;;;;;;;;5083442;28;20180;-69
2024/01/23 07:44:42;;;;;;;14.20;4.43;;;;;;;;;;5048392;28;20234;-69
2024/01/23 07:51:08;;;;;;;11.33;3.03;;;;;;;;;;5076813;28;20288;-69
2024/01/23 07:53:36;;;;;;;7.03;3.57;;;;;;;;;;5059987;28;20190;-68
2024/01/23 07:56:19;;;;;;;11.00;3.03;;;;;;;;;;5062404;28;20173;-69
2024/01/23 07:58:48;;;;;;;7.80;2.73;;;;;;;;;;5059447;28;20233;-68
2024/01/23 08:05:08;;;;;;;11.50;3.60;;;;;;;;;;5076908;28;20161;-72
2024/01/23 08:11:34;;;;;;;9.80;3.60;;;;;;;;;;5076822;28;20273;-68
2024/01/23 08:14:01;;;;;;;10.37;2.90;;;;;;;;;;5059017;28;20437;-70
2024/01/23 08:16:31;;;;;;;10.33;3.37;;;;;;;;;;5026782;28;20193;-69
2024/01/23 08:19:01;;;;;;;7.83;3.13;;;;;;;;;;5076421;28;20641;-69
2024/01/23 08:21:30;;;;;;;6.77;2.73;;;;;;;;;;5044089;28;20269;-69
2024/01/23 08:23:56;;;;;;;9.20;2.57;;;;;;;;;;5059261;28;20285;-69
2024/01/23 08:26:23;;;;;;;8.40;3.00;;;;;;;;;;5058753;28;20221;-69
2024/01/23 08:29:07;;;;;;;13.67;3.63;;;;;;;;;;5061599;28;20161;-70
2024/01/23 08:31:34;;;;;;;10.80;3.57;;;;;;;;;;5058542;28;20208;-70
2024/01/23 08:34:02;;;;;;;9.60;2.30;;;;;;;;;;5060853;28;20206;-70
2024/01/23 08:36:29;;;;;;;9.27;2.47;;;;;;;;;;5042542;28;20186;-70
2024/01/23 08:38:56;;;;;;;5.07;1.97;;;;;;;;;;5042103;28;20707;-70
2024/01/23 08:41:23;;;;;;;7.50;2.93;;;;;;;;;;5076376;28;20236;-70
2024/01/23 08:43:50;;;;;;;8.80;2.63;;;;;;;;;;5042076;28;20183;-70
2024/01/23 08:46:20;;;;;;;9.40;3.10;;;;;;;;;;5042995;28;20182;-70
2024/01/23 08:49:05;;;;;;;8.10;2.20;;;;;;;;;;5061606;28;20151;-69
2024/01/23 08:51:32;;;;;;;8.03;3.37;;;;;;;;;;5076417;28;20249;-70
2024/01/23 08:53:59;;;;;;;10.67;2.93;;;;;;;;;;5025514;28;20186;-69
2024/01/23 08:56:26;;;;;;;8.07;2.23;;;;;;;;;;5058225;28;20194;-69
2024/01/23 08:58:53;;;;;;;4.93;2.17;;;;;;;;;;5058832;28;20498;-70
2024/01/23 09:01:20;;;;;;;11.67;4.03;;;;;;;;;;5058932;28;20676;-70
2024/01/23 09:03:47;;;;;;;19.07;3.40;;;;;;;;;;5041682;28;20190;-69
2024/01/23 09:06:14;;;;;;;8.33;2.93;;;;;;;;;;5041621;28;20190;-69
2024/01/23 09:08:42;;;;;;;7.37;3.63;;;;;;;;;;5042002;28;20178;-70
2024/01/23 09:11:09;;;;;;;10.17;3.53;;;;;;;;;;5041559;28;20288;-70
2024/01/23 09:13:35;;;;;;;7.30;3.40;;;;;;;;;;5075806;28;20178;-70
2024/01/23 09:16:02;;;;;;;7.20;2.63;;;;;;;;;;5058180;28;20273;-70
2024/01/23 09:18:29;;;;;;;5.77;2.57;;;;;;;;;;5058052;28;20633;-69
2024/01/23 09:20:58;;;;;;;4.17;1.73;;;;;;;;;;5041440;28;20208;-69
2024/01/23 09:23:25;;;;;;;13.90;3.57;;;;;;;;;;5041571;28;20193;-70
2024/01/23 09:25:52;;;;;;;7.80;2.80;;;;;;;;;;5058508;28;20629;-69
2024/01/23 09:31:30;;;;;;;7.47;3.30;;;;;;;;;;5057934;28;20201;-70
2024/01/23 09:37:56;;;;;;;6.73;1.93;;;;;;;;;;5075329;28;20558;-70
2024/01/23 09:40:23;;;;;;;14.33;2.83;;;;;;;;;;5057737;28;20236;-70
2024/01/23 09:42:50;;;;;;;11.57;3.40;;;;;;;;;;5057952;28;20265;-70
2024/01/23 09:45:18;;;;;;;5.97;2.13;;;;;;;;;;5057538;28;20182;-70
2024/01/23 09:47:49;;;;;;;7.40;2.63;;;;;;;;;;5040485;28;20190;-70
2024/01/23 09:50:16;;;;;;;7.13;2.23;;;;;;;;;;5041057;28;20230;-70
2024/01/23 09:52:47;;;;;;;9.30;3.00;;;;;;;;;;5057463;28;20260;-70
2024/01/23 09:55:14;;;;;;;7.63;3.03;;;;;;;;;;5057243;28;20633;-70
2024/01/23 09:57:58;;;;;;;5.07;2.40;;;;;;;;;;5045804;28;20170;-70
2024/01/23 10:00:27;;;;;;;5.83;2.07;;;;;;;;;;5040522;28;20189;-70
2024/01/23 10:02:54;;;;;;;7.67;3.07;;;;;;;;;;5039985;28;20715;-70
2024/01/23 10:05:22;;;;;;;10.30;2.50;;;;;;;;;;5056836;28;20190;-70
2024/01/23 10:07:50;;;;;;;7.23;2.23;;;;;;;;;;5040738;28;20194;-70
2024/01/23 10:10:17;;;;;;;7.00;2.70;;;;;;;;;;5057066;28;20206;-70
2024/01/23 10:12:46;;;;;;;6.70;2.07;;;;;;;;;;5056854;28;20189;-70
2024/01/23 10:15:20;;;;;;;10.97;3.57;;;;;;;;;;5056848;28;20214;-70
2024/01/23 10:17:47;;;;;;;6.67;2.93;;;;;;;;;;5025607;28;20280;-71
2024/01/23 10:20:15;;;;;;;6.00;2.07;;;;;;;;;;5040564;28;20285;-70
2024/01/23 10:22:48;;;;;;;11.53;3.67;;;;;;;;;;5098957;27;1625985;-70
2024/01/23 10:25:20;;;;;;;15.03;3.27;;;;;;;;;;5114233;28;20190;-70
2024/01/23 10:27:49;;;;;;;14.87;3.30;;;;;;;;;;5130897;28;20184;-70
2024/01/23 10:30:16;;;;;;;12.83;4.00;;;;;;;;;;5114000;28;20188;-70
2024/01/23 10:32:44;;;;;;;8.53;2.77;;;;;;;;;;5113720;28;20687;-70
2024/01/23 10:35:11;;;;;;;6.20;2.13;;;;;;;;;;5115384;28;20269;-69
2024/01/23 10:37:38;;;;;;;9.00;2.37;;;;;;;;;;5093271;28;20210;-70
2024/01/23 10:40:05;;;;;;;8.50;3.33;;;;;;;;;;5093366;28;20199;-70
2024/01/23 10:42:32;;;;;;;7.53;2.60;;;;;;;;;;5093097;28;20196;-69
2024/01/23 10:44:59;;;;;;;8.20;3.20;;;;;;;;;;5110435;28;20310;-70
2024/01/23 10:47:25;;;;;;;7.97;3.00;;;;;;;;;;5092939;28;20216;-70
2024/01/23 10:49:52;;;;;;;8.33;2.90;;;;;;;;;;5077442;28;20188;-70
2024/01/23 10:52:19;;;;;;;10.03;1.97;;;;;;;;;;5093180;28;20188;-70
2024/01/23 10:54:46;;;;;;;11.60;2.43;;;;;;;;;;5093388;28;20188;-70
2024/01/23 10:57:21;;;;;;;7.13;2.87;;;;;;;;;;5093097;28;20654;-70
2024/01/23 10:59:47;;;;;;;6.53;2.03;;;;;;;;;;5076527;28;20222;-70
2024/01/23 11:02:35;;;;;;;9.37;2.97;;;;;;;;;;5092541;28;20240;-71
2024/01/23 11:05:02;;;;;;;7.57;2.57;;;;;;;;;;5097472;28;20201;-71
2024/01/23 11:07:29;;;;;;;9.13;2.17;;;;;;;;;;5092806;28;20208;-70
2024/01/23 11:09:59;;;;;;;9.07;2.57;;;;;;;;;;5110933;28;20192;-71
2024/01/23 11:12:46;;;;;;;7.87;2.00;;;;;;;;;;5110206;28;20485;-71
2024/01/23 11:15:15;;;;;;;7.70;2.33;;;;;;;;;;5109252;28;20216;-71
2024/01/23 11:17:42;;;;;;;5.47;2.07;;;;;;;;;;5092674;28;20224;-71
2024/01/23 11:20:10;;;;;;;10.20;2.43;;;;;;;;;;5092654;28;20269;-70
2024/01/23 11:22:37;;;;;;;6.97;2.23;;;;;;;;;;5075662;28;20231;-70
2024/01/23 11:25:04;;;;;;;6.03;1.90;;;;;;;;;;5075862;28;20279;-70
2024/01/23 11:27:31;;;;;;;4.27;1.90;;;;;;;;;;5075706;28;20185;-71
2024/01/23 11:29:58;;;;;;;7.57;2.73;;;;;;;;;;5110274;28;20208;-71
2024/01/23 11:32:26;;;;;;;11.13;2.57;;;;;;;;;;5071983;28;20185;-70
2024/01/23 11:35:00;;;;;;;3.20;1.40;;;;;;;;;;5095908;28;20212;-70
2024/01/23 11:37:46;;;;;;;10.10;2.17;;;;;;;;;;5078922;28;20189;-70
2024/01/23 11:40:25;;;;;;;7.03;1.93;;;;;;;;;;5095340;28;20176;-70
2024/01/23 11:42:53;;;;;;;7.67;1.77;;;;;;;;;;5095838;28;20219;-70
2024/01/23 11:45:23;;;;;;;6.53;2.50;;;;;;;;;;5078743;28;20640;-70
2024/01/23 11:47:53;;;;;;;5.33;2.00;;;;;;;;;;5079047;28;20536;-70
2024/01/23 11:50:19;;;;;;;9.87;2.17;;;;;;;;;;5078450;28;20189;-70
2024/01/23 11:52:47;;;;;;;9.60;2.00;;;;;;;;;;5078324;28;20238;-71
2024/01/23 11:55:14;;;;;;;9.33;2.13;;;;;;;;;;5078621;28;20276;-70
2024/01/23 11:57:41;;;;;;;5.10;1.10;;;;;;;;;;5078800;28;20221;-71
2024/01/23 12:00:08;;;;;;;3.77;1.50;;;;;;;;;;5096132;28;20371;-70
2024/01/23 12:02:35;;;;;;;6.87;1.87;;;;;;;;;;5094827;28;20220;-71
2024/01/23 12:05:19;;;;;;;6.27;1.90;;;;;;;;;;5081066;28;20165;-71
2024/01/23 12:07:46;;;;;;;3.07;1.90;;;;;;;;;;5078235;28;20185;-70
2024/01/23 12:10:16;;;;;;;8.03;1.87;;;;;;;;;;5094768;28;20195;-70
2024/01/23 12:12:44;;;;;;;6.97;2.20;;;;;;;;;;5095293;28;20259;-70
2024/01/23 12:15:10;;;;;;;8.73;2.37;;;;;;;;;;5078923;28;20201;-70
2024/01/23 12:17:44;;;;;;;13.50;1.80;;;;;;;;;;5094578;28;20185;-70
2024/01/23 12:20:10;;;;;;;6.70;2.33;;;;;;;;;;5094896;28;20162;-70
2024/01/23 12:22:54;;;;;;;9.37;1.90;;;;;;;;;;5080233;28;20660;-71
2024/01/23 12:25:21;;;;;;;7.27;2.03;;;;;;;;;;5077643;28;20180;-70
2024/01/23 12:28:05;;;;;;;4.77;1.30;;;;;;;;;;5094633;28;20231;-70
2024/01/23 12:30:32;;;;;;;4.27;1.43;;;;;;;;;;5077498;28;20628;-70
2024/01/23 12:33:17;;;;;;;4.10;1.33;;;;;;;;;;5080469;28;20169;-70
2024/01/23 12:35:46;;;;;;;8.37;2.20;;;;;;;;;;5095347;28;20574;-70
2024/01/23 12:38:16;;;;;;;4.73;2.23;;;;;;;;;;5061380;28;20200;-72
2024/01/23 12:40:44;;;;;;;4.77;1.77;;;;;;;;;;5094454;28;20177;-72
2024/01/23 12:43:11;;;;;;;5.13;2.00;;;;;;;;;;5076608;28;20205;-69
2024/01/23 12:45:38;;;;;;;6.83;3.00;;;;;;;;;;5093380;28;20671;-69
2024/01/23 12:48:20;;;;;;;6.23;1.80;;;;;;;;;;5095288;28;20176;-69
2024/01/23 12:50:47;;;;;;;4.10;1.67;;;;;;;;;;5061292;28;20288;-70
2024/01/23 12:53:14;;;;;;;4.67;1.80;;;;;;;;;;5094560;28;20234;-69
2024/01/23 12:55:50;;;;;;;7.63;2.17;;;;;;;;;;5063311;28;20188;-70
2024/01/23 12:58:19;;;;;;;4.57;1.60;;;;;;;;;;5093955;28;20186;-69
2024/01/23 13:00:45;;;;;;;4.17;1.30;;;;;;;;;;5060915;28;20202;-69
2024/01/23 13:03:15;;;;;;;3.77;1.43;;;;;;;;;;5095148;28;20208;-69
2024/01/23 13:05:43;;;;;;;4.97;1.70;;;;;;;;;;5094433;28;20188;-69
2024/01/23 13:08:11;;;;;;;4.73;2.03;;;;;;;;;;5093772;28;20208;-69
2024/01/23 13:10:39;;;;;;;4.27;1.60;;;;;;;;;;5093610;28;20189;-70
2024/01/23 13:13:07;;;;;;;6.10;1.73;;;;;;;;;;5094158;28;20258;-68
2024/01/23 13:15:40;;;;;;;5.57;1.93;;;;;;;;;;5093874;28;20186;-69
2024/01/23 13:18:24;;;;;;;4.80;1.70;;;;;;;;;;5079210;28;20188;-68
2024/01/23 13:20:53;;;;;;;3.03;1.43;;;;;;;;;;5076876;28;20221;-68
2024/01/23 13:23:21;;;;;;;6.90;2.80;;;;;;;;;;5060520;28;20214;-70
2024/01/23 13:25:48;;;;;;;6.43;2.50;;;;;;;;;;5076899;28;20246;-70
2024/01/23 13:28:18;;;;;;;7.93;2.70;;;;;;;;;;5061074;28;20185;-70
2024/01/23 13:30:47;;;;;;;9.63;3.07;;;;;;;;;;5077431;28;20242;-69
2024/01/23 13:33:18;;;;;;;7.73;3.27;;;;;;;;;;5076645;28;20209;-70
2024/01/23 13:35:46;;;;;;;4.90;2.23;;;;;;;;;;5077084;28;20609;-70
2024/01/23 13:38:15;;;;;;;8.97;3.20;;;;;;;;;;5076908;28;20624;-70
2024/01/23 13:40:41;;;;;;;6.20;2.80;;;;;;;;;;5060485;28;20284;-70
2024/01/23 13:43:08;;;;;;;4.53;2.10;;;;;;;;;;5076878;28;20236;-70
2024/01/23 13:45:35;;;;;;;2.67;1.63;;;;;;;;;;5076847;28;20563;-70
2024/01/23 13:48:04;;;;;;;4.00;2.00;;;;;;;;;;5076201;28;20190;-70
2024/01/23 13:50:34;;;;;;;4.30;2.33;;;;;;;;;;5077362;28;20591;-70
2024/01/23 13:53:00;;;;;;;5.47;1.80;;;;;;;;;;5059629;28;20196;-70
2024/01/23 13:55:27;;;;;;;4.43;2.23;;;;;;;;;;5093839;28;20195;-69
2024/01/23 13:57:54;;;;;;;1.27;0.80;;;;;;;;;;5032587;28;20682;-69
2024/01/23 14:00:21;;;;;;;2.23;1.23;;;;;;;;;;5024413;28;20188;-69
2024/01/23 14:02:48;;;;;;;4.47;1.73;;;;;;;;;;5023002;28;20906;-69
2024/01/23 14:05:16;;;;;;;4.03;1.63;;;;;;;;;;5006682;28;20258;-71
2024/01/23 14:07:44;;;;;;;3.13;1.77;;;;;;;;;;5007263;28;20191;-69
2024/01/23 14:10:16;;;;;;;3.37;1.30;;;;;;;;;;5023037;28;20270;-69
2024/01/23 14:12:46;;;;;;;2.17;1.33;;;;;;;;;;5007868;28;21822;-68
2024/01/23 14:15:13;;;;;;;4.10;1.50;;;;;;;;;;5023110;28;20195;-68
2024/01/23 14:17:43;;;;;;;6.67;2.40;;;;;;;;;;5006894;28;20202;-69
2024/01/23 14:20:11;;;;;;;5.33;2.10;;;;;;;;;;5006577;28;20643;-69
2024/01/23 14:22:38;;;;;;;4.33;2.40;;;;;;;;;;5022677;28;20231;-67
2024/01/23 14:25:06;;;;;;;4.60;2.40;;;;;;;;;;5023857;28;20198;-68
2024/01/23 14:27:33;;;;;;;5.83;2.93;;;;;;;;;;5023268;28;20191;-69
2024/01/23 14:30:00;;;;;;;7.47;2.53;;;;;;;;;;5023169;28;20194;-67
2024/01/23 14:32:28;;;;;;;11.43;3.53;;;;;;;;;;5023216;28;20191;-68
2024/01/23 14:34:58;;;;;;;12.10;4.37;;;;;;;;;;5007420;28;20273;-68
2024/01/23 14:37:25;;;;;;;15.70;3.50;;;;;;;;;;5007520;28;20204;-67
2024/01/23 14:39:52;;;;;;;14.03;3.80;;;;;;;;;;5006558;28;20646;-68
2024/01/23 14:42:37;;;;;;;19.37;4.27;;;;;;;;;;5008721;28;20364;-67
2024/01/23 14:45:06;;;;;;;17.07;4.50;;;;;;;;;;5023133;28;20199;-68
2024/01/23 14:47:35;;;;;;;9.47;2.43;;;;;;;;;;5007234;28;20262;-69
2024/01/23 14:50:05;;;;;;;24.87;3.83;;;;;;;;;;5006582;28;20191;-68
2024/01/23 14:52:33;;;;;;;20.53;6.77;;;;;;;;;;5007583;28;20239;-68
2024/01/23 14:55:00;;;;;;;19.73;4.00;;;;;;;;;;5006913;28;20222;-67
2024/01/23 14:57:27;;;;;;;24.93;4.27;;;;;;;;;;5009200;28;20698;-68
2024/01/23 14:59:54;;;;;;;10.97;2.87;;;;;;;;;;5006971;28;20191;-68
2024/01/23 15:02:21;;;;;;;21.70;5.20;;;;;;;;;;5022842;28;20230;-68
2024/01/23 15:04:48;;;;;;;29.50;8.93;;;;;;;;;;5024236;28;20199;-68
2024/01/23 15:07:15;;;;;;;18.47;4.40;;;;;;;;;;5022578;28;20270;-68
2024/01/23 15:09:44;;;;;;;19.33;3.77;;;;;;;;;;5026679;28;20274;-68
2024/01/23 15:12:11;;;;;;;14.70;4.03;;;;;;;;;;5026286;28;20589;-68
2024/01/23 15:14:38;;;;;;;23.70;4.90;;;;;;;;;;5050944;28;20253;-68
2024/01/23 15:17:07;;;;;;;17.87;3.77;;;;;;;;;;5046744;28;20252;-68
2024/01/23 15:19:35;;;;;;;19.13;3.97;;;;;;;;;;5030090;28;20191;-68
2024/01/23 15:22:03;;;;;;;20.70;3.80;;;;;;;;;;5030136;28;20231;-68
2024/01/23 15:24:34;;;;;;;17.57;3.53;;;;;;;;;;5030464;28;20195;-69
2024/01/23 15:27:01;;;;;;;28.80;4.40;;;;;;;;;;5046738;28;20187;-68
2024/01/23 15:29:30;;;;;;;16.73;3.93;;;;;;;;;;5030477;28;20258;-68
2024/01/23 15:31:57;;;;;;;19.77;4.40;;;;;;;;;;5029259;28;20195;-68
2024/01/23 15:34:23;;;;;;;26.97;4.43;;;;;;;;;;5046372;28;20211;-70
2024/01/23 15:36:51;;;;;;;22.80;4.33;;;;;;;;;;5013503;28;20260;-68